New Windsor, Maryland
Current Conditions -  °F | °C
As of 9:05 AM on Wednesday 26 Nov 2014 (Local Time) from KDMW Reporting Station
Light Snow Light Snow  
Wind Chill: 29°   Ceiling: NA
Heat Index: 36°   Visibility: 3mi
Dew Point: 34°   Wind: 9mph
Humidity: 93%   Direction: 70°ENE
Pressure: 30.07"   Gusts: NA
Location:  39.54°N, 77.11°W
Report Text: KDMW 261405Z AUTO 07008KT 3SM -SN SCT00 02/01 A3007 RMK AO2 P0003
Loading
Personal Weather Stations






























Interactive Weather Map New forecast layout! Learn more

10-Day Weather Forecast

Advertisements
Track Severe Weather on mobile